createdAt,value
2019-05-16T00:02:15.762Z,89.15
2019-05-16T00:04:48.152Z,88.62
2019-05-16T00:07:19.388Z,88.97
2019-05-16T00:09:50.481Z,89.28
2019-05-16T00:12:21.521Z,89.37
2019-05-16T00:14:52.382Z,89.38
2019-05-16T00:17:23.376Z,89.52
2019-05-16T00:19:54.415Z,89.73
2019-05-16T00:22:25.364Z,89.51
2019-05-16T00:24:57.989Z,89.96
2019-05-16T00:27:28.727Z,90.49
2019-05-16T00:29:59.579Z,90.48
2019-05-16T00:32:30.623Z,89.95
2019-05-16T00:35:01.480Z,89.64
2019-05-16T00:37:32.353Z,88.72
2019-05-16T00:40:03.518Z,88.14
2019-05-16T00:42:34.167Z,87.49
2019-05-16T00:45:09.219Z,87.02
2019-05-16T00:47:40.173Z,86.15
2019-05-16T00:50:11.422Z,86.48
2019-05-16T00:52:42.601Z,87.28
2019-05-16T00:55:14.582Z,86.98
2019-05-16T00:57:48.197Z,86.67
2019-05-16T01:00:21.701Z,86.54
2019-05-16T01:02:52.570Z,86.72
2019-05-16T01:05:23.632Z,86.35
2019-05-16T01:07:54.590Z,86.48
2019-05-16T01:10:25.532Z,85.22
2019-05-16T01:12:58.413Z,84.32
2019-05-16T01:15:28.855Z,83.51
2019-05-16T01:17:59.940Z,83.17
2019-05-16T01:20:31.017Z,83.25
2019-05-16T01:23:02.079Z,81.83
2019-05-16T01:25:33.036Z,82.25
2019-05-16T01:28:03.876Z,83.51
2019-05-16T01:30:34.957Z,85.29
2019-05-16T01:33:08.656Z,85.23
2019-05-16T01:35:38.709Z,84.99
2019-05-16T01:38:09.568Z,85.70
2019-05-16T01:40:40.510Z,85.89
2019-05-16T01:43:11.467Z,85.69
2019-05-16T01:45:42.340Z,86.06
2019-05-16T01:48:14.850Z,87.00
2019-05-16T01:50:47.940Z,86.09
2019-05-16T01:53:18.132Z,86.00
2019-05-16T01:55:49.550Z,85.87
2019-05-16T01:58:20.503Z,85.60
2019-05-16T02:01:03.258Z,85.81
2019-05-16T02:03:23.859Z,85.99
2019-05-16T02:05:54.915Z,86.14
2019-05-16T02:08:25.858Z,86.21
2019-05-16T02:10:58.406Z,85.89
2019-05-16T02:13:29.841Z,86.04
2019-05-16T02:16:00.897Z,85.94
2019-05-16T02:18:31.857Z,85.41
2019-05-16T02:21:02.698Z,85.00
2019-05-16T02:23:33.773Z,84.81
2019-05-16T02:26:04.733Z,84.34
2019-05-16T02:28:40.120Z,84.49
2019-05-16T02:31:11.959Z,83.72
2019-05-16T02:33:40.777Z,83.49
2019-05-16T02:36:11.840Z,83.19
2019-05-16T02:38:42.697Z,83.27
2019-05-16T02:41:13.855Z,82.69
2019-05-16T02:43:44.496Z,82.09
2019-05-16T02:46:15.245Z,81.86
2019-05-16T02:48:46.424Z,80.62
2019-05-16T02:51:17.076Z,80.22
2019-05-16T02:53:50.889Z,81.05
2019-05-16T02:56:21.587Z,80.91
2019-05-16T02:58:52.716Z,82.67
2019-05-16T03:01:23.569Z,83.20
2019-05-16T03:03:54.635Z,82.40
2019-05-16T03:06:27.297Z,81.15
2019-05-16T03:09:01.846Z,78.68
2019-05-16T03:11:32.210Z,75.33
2019-05-16T03:14:05.313Z,73.79
2019-05-16T03:16:41.550Z,72.38
2019-05-16T03:19:13.573Z,71.17
2019-05-16T03:21:45.046Z,70.40
2019-05-16T03:24:16.109Z,68.06
2019-05-16T03:26:46.943Z,68.04
2019-05-16T03:29:17.817Z,67.28
2019-05-16T03:31:53.662Z,67.34
2019-05-16T03:34:25.312Z,66.48
2019-05-16T03:36:54.895Z,66.46
2019-05-16T03:39:25.824Z,66.85
2019-05-16T03:41:56.809Z,69.58
2019-05-16T03:44:31.468Z,70.10
2019-05-16T03:47:01.132Z,72.06
2019-05-16T03:49:31.810Z,72.97
2019-05-16T03:52:02.804Z,72.71
2019-05-16T03:54:33.843Z,73.17
2019-05-16T03:57:04.689Z,72.43
2019-05-16T03:59:35.554Z,71.34
2019-05-16T04:02:06.624Z,71.47
2019-05-16T04:04:37.567Z,72.17
2019-05-16T04:07:11.014Z,71.72
2019-05-16T04:09:41.470Z,72.25
2019-05-16T04:12:12.377Z,72.28
2019-05-16T04:14:43.437Z,71.82
2019-05-16T04:17:14.314Z,71.28
2019-05-16T04:19:45.271Z,70.38
2019-05-16T04:22:16.122Z,70.69
2019-05-16T04:24:47.166Z,71.14
2019-05-16T04:27:21.209Z,70.28
2019-05-16T04:29:51.360Z,70.32
2019-05-16T04:32:22.415Z,69.57
2019-05-16T04:34:53.453Z,69.15
2019-05-16T04:37:26.371Z,68.86
2019-05-16T04:39:57.258Z,68.86
2019-05-16T04:42:30.766Z,65.51
2019-05-16T04:45:01.052Z,64.83
2019-05-16T04:47:32.237Z,63.56
2019-05-16T04:50:03.301Z,60.67
2019-05-16T04:52:34.154Z,60.84
2019-05-16T04:55:07.059Z,58.11
2019-05-16T04:57:41.977Z,58.42
2019-05-16T05:00:11.774Z,58.08
2019-05-16T05:02:42.908Z,57.28
2019-05-16T05:05:14.145Z,57.83
2019-05-16T05:07:45.034Z,56.66
2019-05-16T05:10:16.288Z,57.61
2019-05-16T05:12:46.853Z,56.61
2019-05-16T05:15:21.043Z,55.87
2019-05-16T05:17:50.799Z,55.00
2019-05-16T05:20:21.560Z,55.93
2019-05-16T05:22:52.403Z,53.05
2019-05-16T05:25:23.483Z,52.22
2019-05-16T05:27:55.976Z,53.76
2019-05-16T05:30:54.341Z,55.39
2019-05-16T05:33:25.404Z,53.71
2019-05-16T05:35:56.369Z,52.37
2019-05-16T05:38:27.298Z,53.69
2019-05-16T05:41:00.205Z,52.34
2019-05-16T05:43:30.749Z,51.84
2019-05-16T05:46:01.834Z,52.19
2019-05-16T05:48:32.788Z,49.57
2019-05-16T05:51:03.850Z,48.47
2019-05-16T05:53:34.687Z,49.30
2019-05-16T05:56:05.646Z,49.08
2019-05-16T05:58:37.748Z,49.58
2019-05-16T06:01:11.192Z,49.45
2019-05-16T06:03:40.991Z,49.45
2019-05-16T06:06:11.952Z,49.22
2019-05-16T06:08:43.012Z,47.72
2019-05-16T06:11:14.069Z,46.92
2019-05-16T06:13:44.927Z,48.34
2019-05-16T06:16:16.000Z,46.03
2019-05-16T06:18:46.946Z,45.68
2019-05-16T06:21:20.276Z,46.67
2019-05-16T06:23:51.062Z,46.42
2019-05-16T06:26:21.871Z,46.82
2019-05-16T06:28:52.723Z,46.09
2019-05-16T06:31:23.459Z,45.27
2019-05-16T06:33:54.541Z,45.56
2019-05-16T06:36:25.376Z,44.92
2019-05-16T06:38:56.336Z,44.71
2019-05-16T06:41:27.190Z,44.71
2019-05-16T06:43:59.948Z,44.49
2019-05-16T06:46:30.779Z,45.76
2019-05-16T06:49:01.823Z,45.46
2019-05-16T06:51:32.766Z,45.12
2019-05-16T06:54:03.640Z,44.77
2019-05-16T06:56:34.695Z,44.98
2019-05-16T06:59:06.660Z,44.32
2019-05-16T07:01:40.007Z,45.16
2019-05-16T07:04:10.591Z,43.47
2019-05-16T07:06:54.737Z,43.31
2019-05-16T07:09:13.887Z,42.54
2019-05-16T07:11:45.051Z,42.54
2019-05-16T07:14:15.741Z,43.72
2019-05-16T07:16:49.742Z,45.62
2019-05-16T07:19:20.830Z,45.02
2019-05-16T07:21:51.952Z,44.42
2019-05-16T07:24:23.021Z,44.46
2019-05-16T07:26:53.870Z,43.58
2019-05-16T07:29:26.362Z,43.12
2019-05-16T07:32:01.843Z,42.93
2019-05-16T07:34:33.186Z,42.39
2019-05-16T07:37:04.351Z,41.74
2019-05-16T07:39:39.306Z,42.59
2019-05-16T07:42:16.527Z,42.31
2019-05-16T07:44:50.622Z,42.31
2019-05-16T07:47:23.422Z,41.97
2019-05-16T07:50:01.419Z,41.95
2019-05-16T07:52:36.452Z,40.25
2019-05-16T07:55:06.123Z,40.79
2019-05-16T07:57:47.401Z,39.76
2019-05-16T08:00:45.873Z,39.85
2019-05-16T08:05:41.946Z,40.55
2019-05-16T08:08:13.024Z,41.46
2019-05-16T08:10:46.715Z,41.71
2019-05-16T08:13:17.697Z,41.07
2019-05-16T08:15:50.286Z,41.55
2019-05-16T08:18:21.775Z,40.45
2019-05-16T08:20:52.946Z,40.45
2019-05-16T08:23:24.198Z,40.76
2019-05-16T08:25:55.036Z,39.89
2019-05-16T08:28:25.916Z,40.70
2019-05-16T08:30:56.849Z,41.84
2019-05-16T08:33:27.824Z,39.93
2019-05-16T08:36:02.931Z,41.00
2019-05-16T08:38:31.488Z,40.24
2019-05-16T08:41:10.981Z,39.52
2019-05-16T08:43:34.810Z,41.28
2019-05-16T08:46:05.990Z,41.34
2019-05-16T08:48:36.953Z,42.51
2019-05-16T08:51:08.122Z,42.14
2019-05-16T08:53:43.467Z,42.66
2019-05-16T08:56:22.130Z,41.72
2019-05-16T08:58:54.980Z,40.85
2019-05-16T09:01:27.084Z,40.63
2019-05-16T09:04:04.545Z,40.08
2019-05-16T09:06:52.491Z,39.52
2019-05-16T09:09:42.637Z,40.09
2019-05-16T09:12:07.933Z,39.73
2019-05-16T09:14:41.354Z,38.52
2019-05-16T09:17:12.220Z,38.92
2019-05-16T09:19:43.270Z,40.06
2019-05-16T09:22:17.978Z,39.92
2019-05-16T09:24:48.568Z,39.50
2019-05-16T09:27:19.524Z,39.86
2019-05-16T09:29:50.580Z,40.09
2019-05-16T09:32:21.989Z,39.93
2019-05-16T09:34:59.554Z,38.88
2019-05-16T09:37:30.219Z,39.34
2019-05-16T09:40:12.755Z,39.46
2019-05-16T09:42:52.773Z,40.49
2019-05-16T09:45:27.476Z,39.44
2019-05-16T09:47:59.820Z,38.67
2019-05-16T09:50:30.980Z,37.43
2019-05-16T09:53:01.528Z,38.20
2019-05-16T09:55:32.484Z,38.12
2019-05-16T09:58:07.107Z,38.93
2019-05-16T10:00:37.539Z,39.79
2019-05-16T10:03:14.084Z,40.01
2019-05-16T10:05:46.694Z,39.43
2019-05-16T10:08:23.543Z,38.85
2019-05-16T10:13:47.087Z,39.30
2019-05-16T10:16:20.758Z,40.43
2019-05-16T10:18:51.491Z,39.59
2019-05-16T10:21:22.452Z,38.24
2019-05-16T10:23:53.431Z,37.99
2019-05-16T10:26:27.460Z,37.79
2019-05-16T10:28:57.780Z,38.04
2019-05-16T10:31:41.502Z,38.91
2019-05-16T10:34:01.025Z,39.17
2019-05-16T10:36:32.120Z,39.69
2019-05-16T10:39:03.472Z,37.86
2019-05-16T10:41:34.025Z,37.75
2019-05-16T10:44:06.251Z,36.36
2019-05-16T10:46:37.623Z,37.35
2019-05-16T10:49:08.544Z,36.69
2019-05-16T10:51:39.397Z,38.69
2019-05-16T10:54:13.956Z,37.30
2019-05-16T10:56:46.986Z,37.40
2019-05-16T11:01:51.797Z,36.41
2019-05-16T11:04:33.474Z,37.75
2019-05-16T11:06:57.212Z,37.39
2019-05-16T11:09:28.065Z,36.73
2019-05-16T11:11:59.124Z,36.88
2019-05-16T11:14:31.602Z,37.10
2019-05-16T11:17:02.679Z,36.52
2019-05-16T11:19:33.640Z,36.63
2019-05-16T11:22:04.479Z,37.09
2019-05-16T11:24:37.779Z,36.29
2019-05-16T11:27:07.926Z,37.05
2019-05-16T11:29:39.003Z,35.46
2019-05-16T11:32:09.963Z,37.26
2019-05-16T11:34:40.804Z,35.69
2019-05-16T11:37:11.882Z,36.31
2019-05-16T11:39:42.839Z,35.74
2019-05-16T11:42:13.901Z,36.44
2019-05-16T11:44:47.612Z,38.98
2019-05-16T11:47:17.062Z,37.54
2019-05-16T11:49:47.884Z,38.07
2019-05-16T11:52:18.740Z,37.29
2019-05-16T11:54:49.614Z,36.96
2019-05-16T11:57:20.674Z,37.48
2019-05-16T11:59:51.629Z,36.94
2019-05-16T12:02:23.713Z,38.16
2019-05-16T12:04:57.748Z,36.51
2019-05-16T12:07:33.243Z,37.36
2019-05-16T12:09:59.499Z,37.38
2019-05-16T12:12:30.395Z,37.79
2019-05-16T12:15:01.369Z,38.68
2019-05-16T12:17:32.311Z,37.50
2019-05-16T12:20:03.392Z,37.26
2019-05-16T12:22:34.230Z,38.64
2019-05-16T12:25:08.209Z,37.35
2019-05-16T12:27:42.213Z,36.65
2019-05-16T12:30:13.596Z,37.74
2019-05-16T12:32:47.898Z,38.59
2019-05-16T12:35:19.103Z,37.66
2019-05-16T12:37:51.898Z,37.34
2019-05-16T12:40:22.510Z,37.78
2019-05-16T12:42:54.409Z,38.57
2019-05-16T12:45:27.540Z,37.52
2019-05-16T12:47:58.250Z,38.29
2019-05-16T12:50:29.214Z,36.95
2019-05-16T12:53:00.046Z,37.68
2019-05-16T12:55:31.126Z,35.23
2019-05-16T12:58:13.586Z,36.07
2019-05-16T13:00:44.032Z,35.79
2019-05-16T13:03:15.661Z,35.68
2019-05-16T13:05:47.792Z,35.11
2019-05-16T13:08:27.014Z,35.10
2019-05-16T13:10:58.018Z,37.63
2019-05-16T13:13:28.986Z,35.71
2019-05-16T13:16:00.092Z,35.27
2019-05-16T13:18:31.028Z,35.61
2019-05-16T13:21:01.969Z,35.40
2019-05-16T13:23:32.738Z,35.97
2019-05-16T13:26:03.973Z,34.15
2019-05-16T13:28:34.535Z,34.78
2019-05-16T13:31:08.869Z,34.99
2019-05-16T13:33:39.437Z,34.66
2019-05-16T13:36:10.508Z,34.86
2019-05-16T13:38:41.346Z,34.22
2019-05-16T13:41:12.209Z,34.24
2019-05-16T13:43:43.272Z,33.26
2019-05-16T13:46:14.238Z,33.32
2019-05-16T13:48:45.285Z,33.13
2019-05-16T13:51:18.981Z,33.00
2019-05-16T13:53:48.516Z,33.15
2019-05-16T13:56:19.617Z,34.04
2019-05-16T13:58:50.438Z,33.20
2019-05-16T14:01:22.247Z,34.73
2019-05-16T14:03:53.269Z,36.29
2019-05-16T14:06:24.334Z,36.55
2019-05-16T14:08:56.768Z,37.17
2019-05-16T14:11:27.697Z,39.02
2019-05-16T14:13:58.537Z,38.95
2019-05-16T14:16:29.609Z,38.49
2019-05-16T14:19:00.672Z,38.17
2019-05-16T14:21:31.630Z,38.42
2019-05-16T14:24:02.469Z,37.37
2019-05-16T14:26:33.555Z,36.94
2019-05-16T14:29:04.739Z,37.14
2019-05-16T14:31:37.726Z,38.41
2019-05-16T14:34:08.162Z,39.05
2019-05-16T14:36:39.223Z,38.72
2019-05-16T14:39:10.183Z,35.51
2019-05-16T14:41:41.036Z,35.33
2019-05-16T14:44:12.204Z,35.06
2019-05-16T14:46:42.733Z,33.95
2019-05-16T14:49:13.491Z,34.66
2019-05-16T14:51:47.582Z,34.09
2019-05-16T14:54:18.795Z,33.73
2019-05-16T14:56:49.965Z,33.87
2019-05-16T14:59:21.000Z,33.32
2019-05-16T15:01:52.810Z,33.86
2019-05-16T15:04:29.810Z,32.78
2019-05-16T15:06:57.392Z,33.51
2019-05-16T15:09:28.230Z,33.52
2019-05-16T15:11:58.984Z,34.57
2019-05-16T15:14:29.922Z,33.55
2019-05-16T15:17:00.778Z,33.85
2019-05-16T15:19:31.686Z,35.29
2019-05-16T15:22:02.763Z,35.07
2019-05-16T15:24:33.787Z,34.69
2019-05-16T15:27:07.902Z,33.54
2019-05-16T15:29:37.828Z,34.53
2019-05-16T15:32:09.002Z,34.12
2019-05-16T15:34:39.960Z,34.54
2019-05-16T15:37:11.022Z,34.75
2019-05-16T15:39:41.979Z,34.62
2019-05-16T15:42:13.039Z,34.50
2019-05-16T15:44:43.877Z,33.82
2019-05-16T15:47:17.430Z,35.11
2019-05-16T15:49:47.922Z,35.50
2019-05-16T15:52:19.205Z,35.53
2019-05-16T15:54:50.899Z,36.66
2019-05-16T15:57:21.533Z,37.36
2019-05-16T15:59:52.515Z,37.87
2019-05-16T16:02:23.448Z,37.88
2019-05-16T16:04:57.558Z,38.68
2019-05-16T16:07:27.928Z,38.58
2019-05-16T16:09:58.680Z,39.77
2019-05-16T16:12:29.761Z,39.08
2019-05-16T16:15:00.606Z,40.25
2019-05-16T16:17:31.553Z,41.26
2019-05-16T16:20:02.587Z,41.84
2019-05-16T16:22:33.695Z,43.54
2019-05-16T16:25:06.861Z,45.48
2019-05-16T16:27:38.062Z,44.77
2019-05-16T16:30:09.313Z,45.61
2019-05-16T16:32:40.085Z,46.54
2019-05-16T16:35:14.013Z,46.24
2019-05-16T16:37:46.955Z,46.12
2019-05-16T16:40:18.393Z,45.98
2019-05-16T16:42:49.033Z,47.10
2019-05-16T16:45:20.418Z,47.71
2019-05-16T16:47:52.993Z,49.23
2019-05-16T16:50:26.566Z,46.79
2019-05-16T16:52:57.261Z,48.21
2019-05-16T16:55:28.424Z,48.21
2019-05-16T16:58:02.450Z,50.65
2019-05-16T17:00:33.390Z,50.65
2019-05-16T17:03:07.201Z,49.34
2019-05-16T17:05:37.316Z,48.23
2019-05-16T17:08:08.415Z,50.05
2019-05-16T17:10:39.494Z,50.74
2019-05-16T17:13:11.842Z,51.02
2019-05-16T17:15:42.432Z,51.29
2019-05-16T17:18:13.495Z,51.04
2019-05-16T17:20:44.331Z,51.91
2019-05-16T17:23:17.122Z,52.47
2019-05-16T17:25:47.495Z,52.70
2019-05-16T17:28:18.458Z,52.88
2019-05-16T17:30:49.309Z,53.86
2019-05-16T17:33:20.373Z,53.83
2019-05-16T17:35:51.215Z,53.77
2019-05-16T17:38:21.964Z,53.49
2019-05-16T17:40:53.041Z,53.87
2019-05-16T17:43:23.998Z,52.84
2019-05-16T17:45:57.302Z,53.35
2019-05-16T17:48:29.936Z,53.75
2019-05-16T17:51:00.664Z,54.25
2019-05-16T17:53:31.497Z,53.98
2019-05-16T17:56:06.871Z,53.87
2019-05-16T17:58:37.831Z,53.44
2019-05-16T18:01:09.725Z,54.61
2019-05-16T18:03:40.663Z,54.58
2019-05-16T18:06:12.628Z,54.87
2019-05-16T18:08:46.651Z,54.94
2019-05-16T18:11:18.667Z,55.51
2019-05-16T18:13:50.122Z,55.49
2019-05-16T18:16:21.185Z,55.95
2019-05-16T18:18:52.042Z,56.04
2019-05-16T18:21:24.515Z,56.34
2019-05-16T18:23:55.448Z,56.30
2019-05-16T18:26:28.993Z,56.36
2019-05-16T18:28:59.557Z,55.92
2019-05-16T18:31:32.286Z,56.36
2019-05-16T18:34:03.316Z,56.49
2019-05-16T18:36:34.375Z,55.91
2019-05-16T18:39:11.044Z,56.92
2019-05-16T18:41:43.538Z,56.77
2019-05-16T18:44:17.782Z,57.70
2019-05-16T18:47:03.958Z,57.24
2019-05-16T18:49:24.107Z,56.75
2019-05-16T18:51:56.928Z,57.10
2019-05-16T18:54:30.724Z,58.19
2019-05-16T18:57:01.670Z,58.43
2019-05-16T18:59:36.909Z,57.85
2019-05-16T19:02:10.209Z,56.96
2019-05-16T19:04:40.266Z,57.72
2019-05-16T19:07:17.613Z,58.42
2019-05-16T19:09:50.078Z,58.39
2019-05-16T19:12:23.401Z,58.60
2019-05-16T19:14:57.185Z,59.05
2019-05-16T19:17:28.457Z,59.12
2019-05-16T19:19:59.332Z,59.06
2019-05-16T19:22:30.378Z,58.85
2019-05-16T19:25:01.558Z,59.61
2019-05-16T19:27:37.039Z,59.89
2019-05-16T19:30:09.405Z,60.25
2019-05-16T19:32:40.464Z,60.45
2019-05-16T19:35:13.427Z,60.82
2019-05-16T19:37:44.311Z,60.91
2019-05-16T19:40:17.327Z,61.36
2019-05-16T19:42:48.079Z,61.77
2019-05-16T19:45:19.531Z,61.82
2019-05-16T19:47:50.493Z,61.79
2019-05-16T19:50:23.775Z,61.99
2019-05-16T19:52:57.536Z,62.91
2019-05-16T19:55:28.380Z,62.69
2019-05-16T19:57:59.250Z,62.38
2019-05-16T20:00:31.967Z,62.08
2019-05-16T20:03:07.696Z,62.26
2019-05-16T20:05:38.593Z,62.12
2019-05-16T20:08:09.527Z,63.10
2019-05-16T20:10:49.691Z,62.71
2019-05-16T20:13:20.942Z,63.76
2019-05-16T20:15:51.819Z,63.30
2019-05-16T20:18:22.872Z,63.98
2019-05-16T20:20:56.755Z,64.29
2019-05-16T20:23:27.827Z,65.09
2019-05-16T20:25:58.918Z,65.31
2019-05-16T20:28:29.765Z,65.21
2019-05-16T20:31:00.843Z,65.56
2019-05-16T20:33:31.897Z,65.39
2019-05-16T20:36:02.836Z,65.87
2019-05-16T20:38:33.916Z,66.19
2019-05-16T20:41:07.602Z,66.50
2019-05-16T20:43:37.860Z,66.41
2019-05-16T20:46:08.942Z,66.67
2019-05-16T20:49:07.779Z,66.44
2019-05-16T20:51:38.994Z,67.09
2019-05-16T20:54:09.724Z,66.81
2019-05-16T20:56:40.252Z,67.13
2019-05-16T20:59:11.052Z,67.75
2019-05-16T21:01:41.965Z,67.52
2019-05-16T21:04:12.687Z,67.74
2019-05-16T21:06:56.772Z,68.11
2019-05-16T21:09:17.012Z,67.95
2019-05-16T21:11:50.118Z,68.55
2019-05-16T21:14:20.360Z,68.34
2019-05-16T21:16:51.196Z,68.50
2019-05-16T21:19:22.053Z,68.87
2019-05-16T21:21:52.910Z,68.53
2019-05-16T21:24:23.764Z,68.72
2019-05-16T21:26:54.696Z,68.58
2019-05-16T21:29:27.628Z,69.08
2019-05-16T21:31:58.174Z,69.38
2019-05-16T21:34:28.924Z,69.72
2019-05-16T21:37:11.226Z,68.59
2019-05-16T21:39:32.175Z,69.84
2019-05-16T21:42:03.150Z,70.00
2019-05-16T21:44:33.781Z,69.26
2019-05-16T21:47:04.845Z,69.64
2019-05-16T21:49:36.980Z,69.93
2019-05-16T21:52:08.076Z,70.46
2019-05-16T21:54:38.890Z,69.87
2019-05-16T21:57:09.787Z,70.28
2019-05-16T21:59:40.700Z,70.06
2019-05-16T22:02:11.824Z,70.55
2019-05-16T22:04:42.679Z,70.42
2019-05-16T22:07:13.739Z,70.86
2019-05-16T22:09:46.589Z,71.17
2019-05-16T22:12:17.518Z,71.28
2019-05-16T22:14:52.815Z,70.99
2019-05-16T22:17:23.308Z,70.90
2019-05-16T22:19:56.251Z,71.13
2019-05-16T22:22:29.825Z,71.89
2019-05-16T22:24:58.974Z,71.53
2019-05-16T22:27:29.998Z,72.03
2019-05-16T22:30:00.897Z,72.41
2019-05-16T22:32:31.918Z,72.02
2019-05-16T22:35:02.569Z,72.38
2019-05-16T22:37:46.156Z,73.22
2019-05-16T22:40:09.085Z,72.30
2019-05-16T22:42:39.534Z,72.50
2019-05-16T22:45:12.197Z,72.45
2019-05-16T22:47:42.777Z,72.90
2019-05-16T22:50:17.652Z,73.03
2019-05-16T22:52:47.659Z,73.33
2019-05-16T22:55:18.975Z,73.53
2019-05-16T22:57:49.885Z,73.84
2019-05-16T23:00:22.889Z,74.23
2019-05-16T23:02:53.834Z,74.36
2019-05-16T23:05:27.230Z,74.61
2019-05-16T23:08:04.963Z,75.11
2019-05-16T23:10:30.198Z,75.65
2019-05-16T23:13:00.852Z,75.23
2019-05-16T23:15:31.604Z,75.04
2019-05-16T23:18:02.666Z,75.73
2019-05-16T23:20:33.565Z,76.21
2019-05-16T23:23:06.898Z,76.45
2019-05-16T23:25:37.257Z,76.29
2019-05-16T23:28:08.034Z,76.81
2019-05-16T23:30:38.891Z,76.67
2019-05-16T23:33:09.848Z,77.11
2019-05-16T23:35:43.205Z,77.31
2019-05-16T23:38:19.461Z,77.85
2019-05-16T23:40:46.913Z,77.16
2019-05-16T23:43:17.571Z,77.66
2019-05-16T23:45:48.527Z,77.98
2019-05-16T23:48:19.483Z,78.33
2019-05-16T23:50:50.342Z,78.58
2019-05-16T23:53:21.196Z,78.72
2019-05-16T23:55:51.953Z,78.20
2019-05-16T23:58:22.658Z,78.33
